Time;durP1;ratioP1;P1;durP2;ratioP2;P2;SDS_P1;SDS_P2;PMS_P1;PMS_P2;Temp;Humidity;BMP_temperature;BMP_pressure;BME280_temperature;BME280_humidity;BME280_pressure;Samples;Min_cycle;Max_cycle;Signal;HPM_P1;HPM_P2
2021/03/27 00:01:23;;;;;;;14.97;12.77;;;8.70;99.90;;;;;;5094951;28;20241;-60
2021/03/27 00:03:56;;;;;;;16.07;13.13;;;8.90;99.90;;;;;;5094469;28;20187;-53
2021/03/27 00:06:29;;;;;;;18.63;12.90;;;9.00;99.90;;;;;;5094272;28;20234;-53
2021/03/27 00:09:00;;;;;;;15.10;12.37;;;8.90;99.90;;;;;;5094396;28;20275;-52
2021/03/27 00:11:36;;;;;;;16.63;12.80;;;9.00;99.90;;;;;;5094731;28;20268;-53
2021/03/27 00:14:07;;;;;;;16.40;13.17;;;9.00;99.90;;;;;;5090026;28;20243;-50
2021/03/27 00:16:39;;;;;;;16.20;12.73;;;9.00;99.90;;;;;;5081122;28;20207;-59
2021/03/27 00:19:10;;;;;;;14.07;12.53;;;8.90;99.90;;;;;;5094355;28;20204;-60
2021/03/27 00:21:42;;;;;;;14.90;12.53;;;8.80;99.90;;;;;;5087362;28;20288;-60
2021/03/27 00:24:16;;;;;;;16.20;12.30;;;8.90;99.90;;;;;;5079529;28;20288;-61
2021/03/27 00:26:47;;;;;;;13.90;11.77;;;8.80;99.90;;;;;;5073834;28;20260;-61
2021/03/27 00:29:22;;;;;;;16.27;12.20;;;8.70;99.90;;;;;;5074387;28;20191;-61
2021/03/27 00:31:56;;;;;;;15.17;11.77;;;8.70;99.90;;;;;;5074280;28;20542;-62
2021/03/27 00:34:28;;;;;;;13.23;10.67;;;8.60;99.90;;;;;;5073969;28;20200;-62
2021/03/27 00:37:06;;;;;;;14.80;11.93;;;8.60;99.90;;;;;;5073927;28;20196;-63
2021/03/27 00:39:41;;;;;;;14.27;12.13;;;8.60;99.90;;;;;;5075334;28;20666;-61
2021/03/27 00:42:11;;;;;;;13.40;11.97;;;8.70;99.90;;;;;;5093748;28;20631;-61
2021/03/27 00:44:43;;;;;;;18.33;11.97;;;8.80;99.90;;;;;;5087971;28;20197;-62
2021/03/27 00:47:14;;;;;;;14.00;12.43;;;8.80;99.90;;;;;;5073404;28;20287;-61
2021/03/27 00:49:46;;;;;;;17.33;12.67;;;9.00;99.90;;;;;;5090565;28;20192;-61
2021/03/27 00:52:17;;;;;;;17.03;12.77;;;9.20;99.90;;;;;;5082689;28;20291;-62
2021/03/27 00:54:48;;;;;;;14.93;13.10;;;9.30;99.90;;;;;;5073599;28;20181;-62
2021/03/27 00:57:18;;;;;;;16.47;12.97;;;9.40;99.90;;;;;;5073510;28;20565;-61
2021/03/27 00:59:57;;;;;;;16.07;12.50;;;9.40;99.90;;;;;;5073856;28;20657;-61
2021/03/27 01:02:26;;;;;;;13.80;11.20;;;9.30;99.90;;;;;;5073376;28;20181;-61
2021/03/27 01:04:56;;;;;;;15.97;13.17;;;9.50;99.90;;;;;;5073631;28;20211;-61
2021/03/27 01:07:24;;;;;;;17.17;13.40;;;9.70;99.90;;;;;;5073576;28;20239;-61
2021/03/27 01:09:55;;;;;;;16.17;12.67;;;9.80;99.90;;;;;;5077647;28;20217;-60
2021/03/27 01:12:28;;;;;;;17.00;12.60;;;9.80;99.90;;;;;;5092983;28;20184;-61
2021/03/27 01:15:01;;;;;;;16.83;12.80;;;9.90;99.90;;;;;;5093681;28;20184;-62
2021/03/27 01:17:31;;;;;;;15.87;12.37;;;9.80;99.90;;;;;;5093269;28;20193;-60
2021/03/27 01:20:01;;;;;;;18.93;12.90;;;9.90;99.90;;;;;;5093598;28;20184;-60
2021/03/27 01:22:29;;;;;;;16.60;12.53;;;9.90;99.90;;;;;;5085609;28;20661;-62
2021/03/27 01:24:57;;;;;;;14.03;11.77;;;9.70;99.90;;;;;;5073119;28;20233;-61
2021/03/27 01:27:26;;;;;;;16.97;11.90;;;9.80;99.90;;;;;;5072617;28;20664;-62
2021/03/27 01:30:01;;;;;;;15.83;11.97;;;9.70;99.90;;;;;;5073296;28;20196;-61
2021/03/27 01:32:38;;;;;;;15.77;11.50;;;9.80;99.90;;;;;;5072940;28;20189;-62
2021/03/27 01:35:10;;;;;;;15.83;12.00;;;9.80;99.90;;;;;;5073223;28;20213;-62
2021/03/27 01:37:44;;;;;;;13.90;11.20;;;9.90;99.90;;;;;;5073084;28;20268;-61
2021/03/27 01:40:21;;;;;;;16.20;11.63;;;9.90;99.90;;;;;;5072769;28;20270;-61
2021/03/27 01:43:00;;;;;;;15.10;11.13;;;10.00;99.90;;;;;;5072713;28;20180;-61
2021/03/27 01:45:59;;;;;;;13.10;11.07;;;10.00;99.90;;;;;;5072749;28;20220;-61
2021/03/27 01:48:41;;;;;;;13.67;10.90;;;9.80;99.90;;;;;;5060957;28;20205;-61
2021/03/27 01:51:24;;;;;;;14.83;12.40;;;9.90;99.90;;;;;;5072445;28;20198;-61
2021/03/27 01:53:56;;;;;;;15.73;12.53;;;9.90;99.90;;;;;;5072695;28;20244;-61
2021/03/27 01:56:35;;;;;;;16.10;11.13;;;9.90;99.90;;;;;;5072433;28;20185;-61
2021/03/27 01:59:10;;;;;;;14.03;11.30;;;10.00;99.90;;;;;;5072483;28;20223;-61
2021/03/27 02:01:43;;;;;;;16.20;11.30;;;10.00;99.90;;;;;;5072173;28;20695;-62
2021/03/27 02:04:17;;;;;;;18.40;11.27;;;10.00;99.90;;;;;;5072737;28;20205;-61
2021/03/27 02:06:48;;;;;;;13.77;10.63;;;10.00;99.90;;;;;;5072314;28;20191;-61
2021/03/27 02:09:22;;;;;;;12.73;11.33;;;10.00;99.90;;;;;;5072450;28;20647;-60
2021/03/27 02:12:04;;;;;;;15.40;11.43;;;9.90;99.90;;;;;;5072487;28;20310;-61
2021/03/27 02:14:36;;;;;;;12.90;11.27;;;9.80;99.90;;;;;;5072363;28;20296;-61
2021/03/27 02:17:13;;;;;;;16.37;10.73;;;9.70;99.90;;;;;;5080323;28;20287;-60
2021/03/27 02:20:08;;;;;;;15.03;11.47;;;9.70;99.90;;;;;;5092850;28;20184;-60
2021/03/27 02:22:41;;;;;;;15.33;11.53;;;9.70;99.90;;;;;;5093297;28;20271;-62
2021/03/27 02:25:30;;;;;;;17.57;11.57;;;9.60;99.90;;;;;;5096817;28;20229;-60
2021/03/27 02:28:06;;;;;;;13.47;10.50;;;9.60;99.90;;;;;;5096582;28;20181;-61
2021/03/27 02:30:36;;;;;;;15.70;11.50;;;9.50;99.90;;;;;;5097202;28;20191;-62
2021/03/27 02:33:18;;;;;;;14.93;11.23;;;9.40;99.90;;;;;;5096172;28;20215;-63
2021/03/27 02:35:55;;;;;;;16.37;11.90;;;9.30;99.90;;;;;;5096961;28;20272;-62
2021/03/27 02:38:29;;;;;;;13.87;10.90;;;9.20;99.90;;;;;;5096794;28;20234;-61
2021/03/27 02:41:05;;;;;;;15.67;11.63;;;9.10;99.90;;;;;;5096786;28;20215;-62
2021/03/27 02:43:38;;;;;;;15.57;11.50;;;9.10;99.90;;;;;;5096066;28;20694;-61
2021/03/27 02:46:12;;;;;;;15.73;10.87;;;9.10;99.90;;;;;;5096393;28;20189;-62
2021/03/27 02:48:56;;;;;;;15.87;11.30;;;9.10;99.90;;;;;;5096308;28;20616;-61
2021/03/27 02:51:27;;;;;;;18.10;11.53;;;9.20;99.90;;;;;;5096199;28;20284;-60
2021/03/27 02:54:05;;;;;;;14.63;11.27;;;9.30;99.90;;;;;;5096069;28;20238;-61
2021/03/27 02:56:38;;;;;;;14.77;10.47;;;9.30;99.90;;;;;;5096364;28;20727;-61
2021/03/27 02:59:19;;;;;;;15.93;10.77;;;9.20;99.90;;;;;;5096665;28;20271;-61
2021/03/27 03:01:55;;;;;;;14.70;11.30;;;9.20;99.90;;;;;;5096855;28;20188;-61
2021/03/27 03:04:34;;;;;;;15.50;10.53;;;9.20;99.90;;;;;;5097193;28;20210;-62
2021/03/27 03:07:07;;;;;;;14.13;11.20;;;9.20;99.90;;;;;;5096699;28;20184;-61
2021/03/27 03:09:50;;;;;;;13.90;10.33;;;9.20;99.90;;;;;;5095898;28;20729;-61
2021/03/27 03:12:23;;;;;;;14.37;11.77;;;9.30;99.90;;;;;;5095942;28;20208;-61
2021/03/27 03:14:56;;;;;;;14.40;11.33;;;9.30;99.90;;;;;;5096533;28;20280;-61
2021/03/27 03:17:34;;;;;;;16.73;11.10;;;9.30;99.90;;;;;;5096100;28;20655;-61
2021/03/27 03:20:13;;;;;;;12.17;10.63;;;9.30;99.90;;;;;;5096410;28;20280;-61
2021/03/27 03:22:57;;;;;;;13.03;10.77;;;9.30;99.90;;;;;;5096223;28;20190;-61
2021/03/27 03:25:29;;;;;;;15.47;10.87;;;9.00;99.90;;;;;;5095869;28;20641;-61
2021/03/27 03:28:16;;;;;;;13.70;11.20;;;9.20;99.90;;;;;;5095637;28;20284;-61
2021/03/27 03:30:52;;;;;;;13.53;10.40;;;9.20;99.90;;;;;;5095543;28;20203;-61
2021/03/27 03:33:44;;;;;;;13.33;10.77;;;9.10;99.90;;;;;;5095348;28;20212;-62
2021/03/27 03:36:16;;;;;;;13.73;11.03;;;9.00;99.90;;;;;;5095636;28;20200;-60
2021/03/27 03:39:09;;;;;;;14.50;10.93;;;8.90;99.90;;;;;;5095503;28;20210;-61
2021/03/27 03:41:47;;;;;;;15.60;10.77;;;8.80;99.90;;;;;;5095321;28;20191;-62
2021/03/27 03:44:20;;;;;;;15.07;10.90;;;8.60;99.90;;;;;;5095469;28;20211;-60
2021/03/27 03:47:00;;;;;;;14.63;10.93;;;8.60;99.90;;;;;;5095787;28;20206;-61
2021/03/27 03:49:48;;;;;;;13.00;10.70;;;8.60;99.90;;;;;;5095231;28;20184;-61
2021/03/27 03:52:54;;;;;;;13.87;10.33;;;8.40;99.90;;;;;;5095453;28;20184;-60
2021/03/27 03:55:31;;;;;;;14.20;11.00;;;8.30;99.90;;;;;;5077456;28;20283;-62
2021/03/27 03:58:15;;;;;;;15.37;10.57;;;8.20;99.90;;;;;;5095132;28;20222;-60
2021/03/27 04:00:49;;;;;;;14.70;10.63;;;8.20;99.90;;;;;;5094929;28;20237;-61
2021/03/27 04:03:23;;;;;;;14.83;11.00;;;8.30;99.90;;;;;;5095242;28;20263;-62
2021/03/27 04:05:57;;;;;;;14.53;10.27;;;8.50;99.90;;;;;;5095028;28;20190;-61
2021/03/27 04:08:32;;;;;;;13.17;10.20;;;8.60;99.90;;;;;;5095053;28;20218;-61
2021/03/27 04:11:03;;;;;;;12.37;9.93;;;8.70;99.90;;;;;;5094796;28;20701;-61
2021/03/27 04:13:37;;;;;;;13.73;10.50;;;8.70;99.90;;;;;;5094629;28;20210;-63
2021/03/27 04:16:08;;;;;;;13.13;10.87;;;8.70;99.90;;;;;;5094481;28;20191;-61
2021/03/27 04:18:38;;;;;;;14.60;9.90;;;8.70;99.90;;;;;;5094631;28;20216;-62
2021/03/27 04:21:11;;;;;;;13.47;10.13;;;8.80;99.90;;;;;;5094961;28;20188;-62
2021/03/27 04:23:43;;;;;;;11.37;9.83;;;8.90;99.90;;;;;;5094538;28;20671;-62
2021/03/27 04:26:30;;;;;;;13.07;10.47;;;8.80;99.90;;;;;;5094282;28;20235;-61
2021/03/27 04:29:30;;;;;;;13.80;9.80;;;9.00;99.90;;;;;;5094255;28;20291;-62
2021/03/27 04:32:29;;;;;;;14.00;9.83;;;9.10;99.90;;;;;;5094386;28;20272;-61
2021/03/27 04:35:23;;;;;;;12.83;10.07;;;9.30;99.90;;;;;;5094209;28;20277;-62
2021/03/27 04:38:04;;;;;;;12.53;9.97;;;9.20;99.90;;;;;;5094446;28;20271;-62
2021/03/27 04:40:38;;;;;;;12.57;10.17;;;9.10;99.90;;;;;;5094121;28;20691;-61
2021/03/27 04:43:12;;;;;;;10.53;9.00;;;9.10;99.90;;;;;;5094207;28;20180;-61
2021/03/27 04:45:44;;;;;;;12.90;9.30;;;9.10;99.90;;;;;;5093058;28;20227;-60
2021/03/27 04:48:24;;;;;;;13.87;10.10;;;8.90;99.90;;;;;;5093937;28;20534;-62
2021/03/27 04:51:22;;;;;;;11.50;9.17;;;8.80;99.90;;;;;;5094423;28;20187;-61
2021/03/27 04:53:56;;;;;;;15.67;9.40;;;8.80;99.90;;;;;;5093773;28;20698;-61
2021/03/27 04:56:31;;;;;;;12.77;10.40;;;8.90;99.90;;;;;;5094007;28;20275;-61
2021/03/27 04:59:08;;;;;;;11.47;9.20;;;9.00;99.90;;;;;;5093511;28;20310;-61
2021/03/27 05:01:48;;;;;;;14.20;10.27;;;9.10;99.90;;;;;;5093523;28;20214;-61
2021/03/27 05:04:21;;;;;;;12.57;10.03;;;9.10;99.90;;;;;;5093657;28;20772;-62
2021/03/27 05:06:54;;;;;;;14.80;10.30;;;8.90;99.90;;;;;;5093815;28;20188;-61
2021/03/27 05:09:45;;;;;;;13.80;9.83;;;8.90;99.90;;;;;;5093730;28;20223;-61
2021/03/27 05:12:21;;;;;;;12.27;9.40;;;9.00;99.90;;;;;;5093111;28;20199;-61
2021/03/27 05:15:10;;;;;;;13.37;10.67;;;9.10;99.90;;;;;;5093328;28;20210;-61
2021/03/27 05:17:59;;;;;;;12.10;9.43;;;9.30;99.90;;;;;;5093326;28;20242;-62
2021/03/27 05:20:30;;;;;;;10.60;8.97;;;9.40;99.90;;;;;;5093302;28;20283;-61
2021/03/27 05:23:08;;;;;;;11.20;9.27;;;9.50;99.90;;;;;;5092859;28;20196;-61
2021/03/27 05:25:54;;;;;;;13.47;9.40;;;9.60;99.90;;;;;;5092607;28;20228;-60
2021/03/27 05:28:49;;;;;;;11.77;9.57;;;9.60;99.90;;;;;;5092965;28;20219;-62
2021/03/27 05:31:26;;;;;;;13.63;9.37;;;9.70;99.90;;;;;;5093574;28;20180;-62
2021/03/27 05:34:06;;;;;;;14.40;9.33;;;9.70;99.90;;;;;;5093393;28;20203;-61
2021/03/27 05:36:44;;;;;;;11.47;9.40;;;9.80;99.90;;;;;;5093358;28;20187;-61
2021/03/27 05:39:34;;;;;;;14.80;9.63;;;9.80;99.90;;;;;;5093523;28;20188;-62
2021/03/27 05:42:33;;;;;;;12.97;9.03;;;9.90;99.90;;;;;;5091084;28;20225;-61
2021/03/27 05:45:33;;;;;;;11.97;9.17;;;10.00;99.90;;;;;;5093300;28;20284;-61
2021/03/27 05:48:38;;;;;;;17.57;9.37;;;9.90;99.90;;;;;;5093263;28;20279;-60
2021/03/27 05:51:50;;;;;;;11.23;8.80;;;10.00;99.90;;;;;;5093349;28;20184;-61
2021/03/27 05:54:59;;;;;;;13.30;9.17;;;10.10;99.90;;;;;;5092875;28;20674;-61
2021/03/27 05:57:48;;;;;;;13.20;9.40;;;10.10;99.90;;;;;;5092700;28;20208;-61
2021/03/27 06:00:31;;;;;;;10.40;9.20;;;10.20;99.90;;;;;;5093166;28;20272;-60
2021/03/27 06:03:48;;;;;;;10.80;8.83;;;10.30;99.90;;;;;;5093122;28;20265;-62
2021/03/27 06:07:01;;;;;;;13.40;9.13;;;10.30;99.90;;;;;;5093086;28;20190;-61
2021/03/27 06:09:48;;;;;;;12.80;9.40;;;10.40;99.90;;;;;;5092912;28;20200;-61
2021/03/27 06:12:51;;;;;;;11.63;9.17;;;10.60;99.90;;;;;;5092854;28;20188;-62
2021/03/27 06:15:49;;;;;;;12.27;8.60;;;10.60;99.90;;;;;;5075060;28;20219;-62
2021/03/27 06:18:48;;;;;;;11.00;9.20;;;10.70;99.90;;;;;;5092811;28;20232;-61
2021/03/27 06:21:24;;;;;;;11.97;8.83;;;10.80;99.90;;;;;;5082728;28;20307;-62
2021/03/27 06:23:57;;;;;;;13.30;8.97;;;10.80;99.90;;;;;;5092739;28;20186;-63
2021/03/27 06:27:04;;;;;;;10.30;8.27;;;10.90;99.90;;;;;;5092456;28;20630;-62
2021/03/27 06:30:04;;;;;;;11.77;8.70;;;10.90;99.90;;;;;;5093078;28;20200;-62
2021/03/27 06:33:17;;;;;;;11.30;8.00;;;10.90;99.90;;;;;;5092849;28;20207;-61
2021/03/27 06:36:02;;;;;;;11.10;8.23;;;10.90;99.90;;;;;;5092749;28;20204;-61
2021/03/27 06:38:59;;;;;;;9.83;8.33;;;10.90;99.90;;;;;;5091982;28;20233;-62
2021/03/27 06:41:47;;;;;;;12.00;8.00;;;10.90;99.90;;;;;;5061602;28;20202;-61
2021/03/27 06:44:28;;;;;;;10.53;6.80;;;11.00;99.90;;;;;;5089077;28;20283;-63
2021/03/27 06:47:15;;;;;;;9.47;6.63;;;11.00;99.90;;;;;;5092567;28;20285;-61
2021/03/27 06:49:59;;;;;;;7.70;6.20;;;11.10;99.90;;;;;;5092494;28;20189;-61
2021/03/27 06:52:46;;;;;;;9.67;7.10;;;11.10;99.90;;;;;;5092770;28;20276;-61
2021/03/27 06:55:28;;;;;;;8.37;6.97;;;11.10;99.90;;;;;;5092532;28;20624;-60
2021/03/27 06:58:26;;;;;;;8.67;5.23;;;11.20;99.90;;;;;;5094233;28;20830;-61
2021/03/27 07:01:22;;;;;;;6.70;3.70;;;11.20;99.90;;;;;;5098403;28;20639;-62
2021/03/27 07:04:29;;;;;;;6.97;3.03;;;11.10;99.90;;;;;;5086840;28;20239;-61
2021/03/27 07:07:17;;;;;;;5.13;3.60;;;11.00;99.90;;;;;;5072340;28;20189;-62
2021/03/27 07:10:10;;;;;;;3.30;2.90;;;10.80;99.90;;;;;;5074328;28;20272;-62
2021/03/27 07:13:11;;;;;;;3.23;2.93;;;10.60;99.90;;;;;;5075229;28;20272;-61
2021/03/27 07:16:06;;;;;;;3.40;3.10;;;10.50;99.90;;;;;;5075732;28;20260;-62
2021/03/27 07:19:11;;;;;;;4.20;2.70;;;10.30;99.90;;;;;;5075789;28;20201;-62
2021/03/27 07:21:58;;;;;;;3.50;1.87;;;10.00;99.90;;;;;;5064121;28;20624;-60
2021/03/27 07:24:50;;;;;;;2.40;1.80;;;9.80;99.90;;;;;;5075440;28;20285;-61
2021/03/27 07:27:50;;;;;;;1.53;1.00;;;9.50;99.90;;;;;;5074629;28;20616;-61
2021/03/27 07:30:45;;;;;;;2.17;1.00;;;9.20;99.90;;;;;;5075753;28;20200;-61
2021/03/27 07:33:30;;;;;;;1.63;0.90;;;9.00;99.90;;;;;;5075437;28;20201;-63
2021/03/27 07:36:31;;;;;;;1.03;0.90;;;8.60;99.90;;;;;;5075154;28;20698;-62
2021/03/27 07:39:20;;;;;;;1.97;1.10;;;8.40;99.90;;;;;;5075332;28;20282;-61
2021/03/27 07:42:10;;;;;;;2.23;1.40;;;8.40;99.90;;;;;;5074987;28;20188;-63
2021/03/27 07:44:53;;;;;;;1.30;1.13;;;8.50;99.90;;;;;;5074814;28;20707;-61
2021/03/27 07:47:39;;;;;;;1.83;1.40;;;8.50;99.90;;;;;;5074852;28;20192;-61
2021/03/27 07:50:35;;;;;;;1.70;1.60;;;8.50;99.90;;;;;;5075030;28;20690;-60
2021/03/27 07:53:38;;;;;;;1.53;1.30;;;8.60;99.90;;;;;;5070788;28;20550;-61
2021/03/27 07:56:27;;;;;;;1.33;1.23;;;8.70;99.90;;;;;;5074929;28;20192;-61
2021/03/27 07:59:21;;;;;;;1.63;1.47;;;8.90;99.90;;;;;;5074331;28;20728;-61
2021/03/27 08:02:06;;;;;;;1.30;1.20;;;8.90;99.90;;;;;;5085965;28;20716;-62
2021/03/27 08:04:58;;;;;;;2.17;1.93;;;8.90;99.90;;;;;;5081128;28;20270;-61
2021/03/27 08:07:49;;;;;;;2.40;2.00;;;8.90;99.90;;;;;;5090341;28;20284;-62
2021/03/27 08:10:38;;;;;;;1.80;1.63;;;9.00;99.90;;;;;;5074157;28;20223;-62
2021/03/27 08:13:37;;;;;;;1.60;1.50;;;9.20;99.90;;;;;;5075291;28;20200;-62
2021/03/27 08:16:44;;;;;;;3.17;1.70;;;9.30;99.90;;;;;;5086360;28;20200;-61
2021/03/27 08:19:41;;;;;;;2.20;1.80;;;9.60;99.90;;;;;;5090690;28;20211;-61
2021/03/27 08:22:22;;;;;;;3.13;1.90;;;9.80;99.90;;;;;;5094721;28;20188;-61
2021/03/27 08:24:55;;;;;;;2.93;2.00;;;9.80;99.90;;;;;;5094153;28;20236;-62
2021/03/27 08:27:48;;;;;;;2.20;1.70;;;9.70;99.90;;;;;;5094021;28;20274;-62
2021/03/27 08:30:46;;;;;;;1.90;1.70;;;9.60;99.90;;;;;;5083923;28;20652;-61
2021/03/27 08:33:55;;;;;;;2.00;1.80;;;9.50;99.90;;;;;;5084500;28;20202;-62
2021/03/27 08:36:59;;;;;;;4.10;2.50;;;9.40;99.90;;;;;;5094037;28;20271;-61
2021/03/27 08:39:59;;;;;;;2.90;1.80;;;9.30;99.90;;;;;;5087729;28;20620;-61
2021/03/27 08:43:09;;;;;;;2.07;1.70;;;9.40;99.90;;;;;;5077206;28;20276;-60
2021/03/27 08:46:12;;;;;;;2.17;1.60;;;9.40;99.90;;;;;;5082640;28;20577;-60
2021/03/27 08:49:01;;;;;;;1.83;1.53;;;9.60;99.90;;;;;;5093682;28;20181;-61
2021/03/27 08:51:34;;;;;;;1.63;1.43;;;9.90;99.90;;;;;;5091439;28;20219;-61
2021/03/27 08:54:48;;;;;;;1.80;1.53;;;10.10;99.90;;;;;;5081196;28;20722;-63
2021/03/27 08:57:41;;;;;;;1.37;1.27;;;9.90;99.90;;;;;;5064443;28;20198;-61
2021/03/27 09:00:35;;;;;;;2.10;1.43;;;10.10;99.90;;;;;;5074104;28;20375;-62
2021/03/27 09:03:35;;;;;;;2.33;1.67;;;10.20;99.90;;;;;;5078368;28;20283;-61
2021/03/27 09:06:32;;;;;;;1.57;1.47;;;10.40;99.90;;;;;;5065705;28;20295;-62
2021/03/27 09:09:20;;;;;;;1.90;1.70;;;10.70;99.90;;;;;;5073590;28;20239;-60
2021/03/27 09:12:03;;;;;;;2.27;1.30;;;10.90;99.90;;;;;;5081837;28;20258;-61
2021/03/27 09:14:43;;;;;;;2.27;1.40;;;10.60;99.90;;;;;;5073150;28;20240;-61
2021/03/27 09:17:51;;;;;;;3.23;1.57;;;10.40;99.90;;;;;;5082544;28;20275;-60
2021/03/27 09:20:43;;;;;;;1.40;1.30;;;10.30;99.90;;;;;;5093593;28;20281;-60
2021/03/27 09:23:35;;;;;;;1.50;1.10;;;10.20;99.90;;;;;;5093505;28;20181;-62
2021/03/27 09:26:31;;;;;;;4.43;1.73;;;10.30;99.90;;;;;;5090465;28;20546;-61
2021/03/27 09:29:20;;;;;;;2.13;1.37;;;10.20;99.90;;;;;;5092892;28;20271;-61
2021/03/27 09:32:08;;;;;;;7.60;3.07;;;10.10;99.90;;;;;;5092680;28;20194;-61
2021/03/27 09:35:08;;;;;;;3.37;2.00;;;10.10;99.90;;;;;;5087295;28;20209;-62
2021/03/27 09:37:45;;;;;;;1.87;1.67;;;9.90;99.90;;;;;;5087072;28;20239;-61
2021/03/27 09:40:22;;;;;;;1.50;1.27;;;9.80;99.90;;;;;;5093180;28;20218;-62
2021/03/27 09:43:26;;;;;;;2.07;1.70;;;9.90;99.90;;;;;;5092601;28;20267;-62
2021/03/27 09:45:57;;;;;;;4.17;1.90;;;10.10;99.90;;;;;;5092458;28;20233;-61
2021/03/27 09:48:37;;;;;;;2.77;1.77;;;10.10;99.90;;;;;;5083561;28;20191;-60
2021/03/27 09:51:16;;;;;;;6.43;2.00;;;10.30;99.90;;;;;;5072415;28;20197;-59
2021/03/27 09:53:52;;;;;;;3.03;1.67;;;10.60;99.90;;;;;;5075419;28;20202;-60
2021/03/27 09:56:32;;;;;;;2.47;2.07;;;10.90;99.90;;;;;;5079152;28;20287;-59
2021/03/27 09:59:19;;;;;;;2.70;2.13;;;11.40;99.90;;;;;;5080696;28;20275;-60
2021/03/27 10:01:52;;;;;;;4.23;2.40;;;11.40;99.90;;;;;;5084873;28;20196;-62
2021/03/27 10:04:37;;;;;;;4.13;2.10;;;11.20;99.90;;;;;;5082633;28;20190;-62
2021/03/27 10:07:43;;;;;;;2.93;2.20;;;10.70;99.90;;;;;;5088530;28;20196;-61
2021/03/27 10:10:36;;;;;;;2.70;1.90;;;10.50;99.90;;;;;;5063586;28;20671;-62
2021/03/27 10:13:15;;;;;;;3.80;2.10;;;10.60;99.90;;;;;;5091215;28;20235;-62
2021/03/27 10:15:48;;;;;;;2.37;2.03;;;10.60;99.90;;;;;;5089166;28;20216;-62
2021/03/27 10:18:23;;;;;;;3.00;2.10;;;10.60;99.90;;;;;;5083910;28;20220;-63
2021/03/27 10:20:54;;;;;;;4.93;2.50;;;10.80;99.90;;;;;;5071970;28;20734;-62
2021/03/27 10:23:32;;;;;;;2.57;1.97;;;10.90;99.90;;;;;;5072459;28;20195;-62
2021/03/27 10:26:18;;;;;;;3.63;1.63;;;10.90;99.90;;;;;;5074049;28;20764;-62
2021/03/27 10:28:51;;;;;;;2.57;1.73;;;10.70;99.90;;;;;;5071552;28;20282;-63
2021/03/27 10:31:21;;;;;;;3.50;1.80;;;10.50;99.90;;;;;;5071820;28;20205;-61
2021/03/27 10:34:01;;;;;;;1.57;1.27;;;10.30;99.90;;;;;;5071921;28;20291;-62
2021/03/27 10:36:42;;;;;;;2.87;1.70;;;10.10;99.90;;;;;;5076415;28;20215;-62
2021/03/27 10:39:36;;;;;;;2.13;1.50;;;10.00;99.90;;;;;;5080725;28;20196;-63
2021/03/27 10:42:39;;;;;;;1.70;1.30;;;10.20;99.90;;;;;;5072068;28;20614;-62
2021/03/27 10:45:25;;;;;;;2.93;1.50;;;10.50;99.90;;;;;;5075029;28;20239;-62
2021/03/27 10:48:19;;;;;;;2.27;1.40;;;10.80;99.90;;;;;;5084516;28;20283;-63
2021/03/27 10:50:57;;;;;;;4.93;2.10;;;11.00;99.90;;;;;;5087830;28;20208;-62
2021/03/27 10:53:33;;;;;;;2.27;1.63;;;10.80;99.90;;;;;;5085759;28;20207;-61
2021/03/27 10:56:26;;;;;;;1.77;1.43;;;10.70;99.90;;;;;;5092350;28;20291;-61
2021/03/27 10:59:04;;;;;;;4.57;1.60;;;10.70;99.90;;;;;;5093881;28;20291;-62
2021/03/27 11:01:56;;;;;;;4.57;1.50;;;10.70;99.90;;;;;;5094335;28;20188;-62
2021/03/27 11:04:58;;;;;;;3.83;1.50;;;10.80;99.90;;;;;;5093048;28;20184;-62
2021/03/27 11:08:03;;;;;;;1.20;0.90;;;10.60;99.90;;;;;;5093365;28;20274;-61
2021/03/27 11:10:46;;;;;;;1.67;0.93;;;10.70;99.90;;;;;;5093704;28;20764;-62
2021/03/27 11:13:41;;;;;;;3.80;1.10;;;10.80;99.90;;;;;;5093815;28;20651;-62
2021/03/27 11:16:27;;;;;;;2.80;1.27;;;10.80;99.90;;;;;;5072731;28;20247;-61
2021/03/27 11:19:22;;;;;;;2.20;0.90;;;10.90;99.90;;;;;;5094368;28;20266;-63
2021/03/27 11:22:22;;;;;;;3.53;1.20;;;10.90;99.90;;;;;;5093757;28;20271;-63
2021/03/27 11:25:26;;;;;;;2.83;1.10;;;11.10;99.90;;;;;;5087658;28;21345;-63
2021/03/27 11:28:08;;;;;;;2.37;1.00;;;11.10;99.90;;;;;;5093063;28;20695;-63
2021/03/27 11:30:40;;;;;;;3.03;1.00;;;11.10;99.90;;;;;;5093903;28;20568;-63
2021/03/27 11:33:19;;;;;;;1.30;0.77;;;11.10;99.90;;;;;;5082074;28;20284;-61
2021/03/27 11:35:57;;;;;;;3.27;1.40;;;11.20;99.90;;;;;;5094859;28;20300;-62
2021/03/27 11:38:29;;;;;;;12.57;1.53;;;11.60;99.90;;;;;;5092957;28;20181;-62
2021/03/27 11:41:03;;;;;;;3.33;1.30;;;12.10;99.90;;;;;;5092362;28;20188;-62
2021/03/27 11:44:03;;;;;;;2.47;1.23;;;12.50;99.90;;;;;;5094614;28;20275;-62
2021/03/27 11:46:37;;;;;;;2.67;0.80;;;12.90;99.90;;;;;;5074894;28;20667;-64
2021/03/27 11:49:09;;;;;;;2.93;1.40;;;13.20;99.90;;;;;;5074622;28;20216;-63
2021/03/27 11:51:41;;;;;;;3.90;1.13;;;13.50;99.90;;;;;;5074998;28;20185;-62
2021/03/27 11:54:26;;;;;;;5.33;1.70;;;13.90;99.90;;;;;;5074861;28;20185;-62
2021/03/27 11:57:21;;;;;;;4.43;1.07;;;13.90;99.90;;;;;;5074507;28;20288;-62
2021/03/27 12:02:58;;;;;;;2.77;1.30;;;13.00;99.90;;;;;;5095046;28;20180;-63
2021/03/27 12:05:36;;;;;;;3.33;1.30;;;12.70;99.90;;;;;;5094669;28;20179;-62
2021/03/27 12:08:15;;;;;;;2.47;1.17;;;12.50;99.90;;;;;;5094742;28;20184;-63
2021/03/27 12:10:55;;;;;;;5.03;1.00;;;12.30;99.90;;;;;;5094758;28;20575;-62
2021/03/27 12:13:29;;;;;;;2.47;1.10;;;12.20;99.90;;;;;;5094328;28;20204;-61
2021/03/27 12:16:13;;;;;;;3.53;0.90;;;12.30;99.90;;;;;;5094477;28;20331;-62
2021/03/27 12:19:10;;;;;;;2.00;0.80;;;12.20;99.90;;;;;;5074024;28;20738;-64
2021/03/27 12:21:45;;;;;;;1.50;0.90;;;12.20;99.90;;;;;;5073068;28;20208;-63
2021/03/27 12:24:25;;;;;;;23.43;2.23;;;11.90;99.90;;;;;;5074242;28;20188;-62
2021/03/27 12:27:00;;;;;;;10.47;1.53;;;11.00;99.90;;;;;;5073708;28;20715;-63
2021/03/27 12:29:37;;;;;;;5.00;0.90;;;9.60;99.90;;;;;;5073883;28;20216;-67
2021/03/27 12:32:37;;;;;;;2.93;0.60;;;8.60;99.90;;;;;;5073862;28;20773;-65
2021/03/27 12:35:13;;;;;;;0.70;0.43;;;8.20;99.90;;;;;;5073592;28;20282;-63
2021/03/27 12:37:49;;;;;;;1.23;0.50;;;7.90;99.90;;;;;;5073982;28;20224;-61
2021/03/27 12:40:24;;;;;;;3.73;0.60;;;7.50;99.90;;;;;;5073890;28;20295;-61
2021/03/27 12:42:57;;;;;;;1.00;0.40;;;7.20;99.90;;;;;;5073517;28;20278;-61
2021/03/27 12:45:29;;;;;;;0.33;0.30;;;7.00;99.90;;;;;;5084798;28;20186;-61
2021/03/27 12:48:05;;;;;;;0.70;0.30;;;7.00;99.90;;;;;;5094153;28;20203;-63
2021/03/27 12:50:46;;;;;;;0.40;0.40;;;7.00;99.90;;;;;;5094294;28;20265;-61
2021/03/27 12:53:39;;;;;;;0.80;0.40;;;7.20;99.90;;;;;;5094173;28;20187;-63
2021/03/27 12:56:17;;;;;;;0.60;0.40;;;7.50;99.90;;;;;;5093956;28;20294;-62
2021/03/27 12:58:50;;;;;;;1.27;0.50;;;7.60;99.90;;;;;;5093890;28;20180;-63
2021/03/27 13:01:44;;;;;;;0.93;0.50;;;7.50;99.90;;;;;;5093763;28;20234;-65
2021/03/27 13:04:30;;;;;;;1.50;0.50;;;7.50;99.90;;;;;;5093620;28;20302;-63
2021/03/27 13:07:20;;;;;;;0.30;0.30;;;7.50;99.90;;;;;;5089915;28;20747;-63
2021/03/27 13:10:07;;;;;;;0.60;0.37;;;7.60;99.90;;;;;;5093122;28;20226;-63
2021/03/27 13:12:43;;;;;;;1.40;0.70;;;7.60;99.90;;;;;;5091594;28;20278;-63
2021/03/27 13:15:28;;;;;;;1.83;1.20;;;7.60;99.90;;;;;;5093754;28;20235;-62
2021/03/27 13:18:37;;;;;;;1.07;0.60;;;7.80;99.90;;;;;;5093645;28;20213;-62
2021/03/27 13:21:29;;;;;;;0.70;0.60;;;8.00;99.90;;;;;;5093332;28;20180;-63
2021/03/27 13:24:01;;;;;;;3.37;1.70;;;8.30;99.90;;;;;;5093176;28;20639;-62
2021/03/27 13:26:30;;;;;;;1.83;1.00;;;8.80;99.90;;;;;;5093129;28;20707;-63
2021/03/27 13:29:05;;;;;;;1.20;0.70;;;9.20;99.90;;;;;;5093206;28;20196;-63
2021/03/27 13:31:36;;;;;;;1.77;0.80;;;9.40;99.90;;;;;;5093670;28;20271;-62
2021/03/27 13:34:10;;;;;;;1.93;1.10;;;9.40;99.90;;;;;;5093201;28;20195;-63
2021/03/27 13:36:41;;;;;;;1.50;0.93;;;9.40;99.90;;;;;;5092642;28;20200;-62
2021/03/27 13:39:28;;;;;;;3.90;1.50;;;9.40;99.90;;;;;;5093329;28;20184;-63
2021/03/27 13:42:17;;;;;;;3.87;1.67;;;9.40;99.90;;;;;;5093059;28;20221;-62
2021/03/27 13:44:51;;;;;;;1.20;1.07;;;9.20;99.90;;;;;;5082147;28;20653;-63
2021/03/27 13:47:37;;;;;;;3.13;1.37;;;9.00;99.90;;;;;;5092843;28;20517;-63
2021/03/27 13:50:28;;;;;;;1.50;0.80;;;8.90;99.90;;;;;;5092952;28;20184;-62
2021/03/27 13:53:19;;;;;;;2.10;0.70;;;8.70;99.90;;;;;;5092824;28;20206;-63
2021/03/27 13:55:56;;;;;;;2.33;1.30;;;8.70;99.90;;;;;;5092704;28;20246;-64
2021/03/27 13:58:26;;;;;;;2.40;1.53;;;8.70;99.90;;;;;;5092875;28;20180;-58
2021/03/27 14:01:00;;;;;;;1.60;1.03;;;8.70;99.90;;;;;;5093315;28;20210;-59
2021/03/27 14:03:47;;;;;;;2.37;0.90;;;9.00;99.90;;;;;;5081642;28;20193;-59
2021/03/27 14:06:24;;;;;;;4.00;0.70;;;9.40;99.90;;;;;;5076940;28;20196;-59
2021/03/27 14:09:21;;;;;;;2.63;1.03;;;9.70;99.90;;;;;;5082131;28;20253;-57
2021/03/27 14:11:57;;;;;;;3.53;1.30;;;9.60;99.90;;;;;;5089371;28;20209;-59